Time;durP1;ratioP1;P1;durP2;ratioP2;P2;SDS_P1;SDS_P2;PMS_P1;PMS_P2;Temp;Humidity;BMP_temperature;BMP_pressure;BME280_temperature;BME280_humidity;BME280_pressure;Samples;Min_cycle;Max_cycle;Signal;HPM_P1;HPM_P2
2023/05/25 00:00:40;;;;;;;;;;;;;;;11.66;71.06;102522.16;5078246;28;19916;-61
2023/05/25 00:03:07;;;;;;;;;;;;;;;11.65;71.55;102517.81;5080051;28;20391;-61
2023/05/25 00:05:32;;;;;;;;;;;;;;;11.63;71.64;102522.41;5069406;28;19925;-61
2023/05/25 00:07:57;;;;;;;;;;;;;;;11.61;71.28;102522.56;5070767;28;20297;-61
2023/05/25 00:10:22;;;;;;;;;;;;;;;11.60;71.48;102536.00;5069517;28;20389;-61
2023/05/25 00:12:48;;;;;;;;;;;;;;;11.57;71.09;102526.47;5074271;28;19991;-61
2023/05/25 00:15:13;;;;;;;;;;;;;;;11.56;71.58;102531.91;5072247;28;19917;-61
2023/05/25 00:17:39;;;;;;;;;;;;;;;11.54;71.66;102523.22;5073381;28;20424;-60
2023/05/25 00:20:08;;;;;;;;;;;;;;;11.52;71.60;102526.00;5069677;28;20412;-61
2023/05/25 00:22:36;;;;;;;;;;;;;;;11.52;71.44;102520.69;5071541;28;19912;-61
2023/05/25 00:25:02;;;;;;;;;;;;;;;11.52;71.76;102520.69;5072923;28;20369;-61
2023/05/25 00:27:27;;;;;;;;;;;;;;;11.52;71.60;102519.84;5073643;28;19938;-61
2023/05/25 00:29:53;;;;;;;;;;;;;;;11.52;71.58;102527.84;5068444;28;20047;-61
2023/05/25 00:32:18;;;;;;;;;;;;;;;11.49;71.49;102527.13;5069706;28;19916;-61
2023/05/25 00:34:43;;;;;;;;;;;;;;;11.49;71.62;102529.78;5069832;28;20423;-61
2023/05/25 00:37:08;;;;;;;;;;;;;;;11.48;71.56;102533.44;5078178;28;19965;-61
2023/05/25 00:39:34;;;;;;;;;;;;;;;11.47;71.87;102529.09;5068288;28;19959;-61
2023/05/25 00:42:01;;;;;;;;;;;;;;;11.46;71.65;102532.72;5075620;28;20845;-61
2023/05/25 00:44:26;;;;;;;;;;;;;;;11.44;71.56;102532.00;5070378;28;20385;-61
2023/05/25 00:46:51;;;;;;;;;;;;;;;11.43;71.55;102524.16;5069938;28;19913;-61
2023/05/25 00:49:17;;;;;;;;;;;;;;;11.43;71.56;102526.84;5075116;28;19999;-61
2023/05/25 00:51:46;;;;;;;;;;;;;;;11.40;71.63;102525.28;5074362;28;19994;-61
2023/05/25 00:54:15;;;;;;;;;;;;;;;11.38;71.59;102524.59;5072242;28;19919;-60
2023/05/25 00:56:43;;;;;;;;;;;;;;;11.35;71.64;102524.84;5070106;28;20008;-61
2023/05/25 00:59:10;;;;;;;;;;;;;;;11.30;71.38;102532.41;5077156;28;19920;-61
2023/05/25 01:01:38;;;;;;;;;;;;;;;11.24;71.69;102524.09;5084514;28;20379;-61
2023/05/25 01:04:06;;;;;;;;;;;;;;;11.20;71.60;102531.50;5070811;28;19924;-62
2023/05/25 01:06:32;;;;;;;;;;;;;;;11.15;71.54;102528.41;5082543;28;19923;-61
2023/05/25 01:09:00;;;;;;;;;;;;;;;11.12;71.68;102529.50;5070831;28;19923;-62
2023/05/25 01:11:30;;;;;;;;;;;;;;;11.10;71.94;102535.94;5080804;28;19923;-61
2023/05/25 01:13:57;;;;;;;;;;;;;;;11.07;72.43;102539.69;5071379;28;19917;-62
2023/05/25 01:16:24;;;;;;;;;;;;;;;11.05;72.55;102532.84;5074693;28;19968;-61
2023/05/25 01:18:51;;;;;;;;;;;;;;;11.02;72.66;102536.59;5074493;28;19920;-61
2023/05/25 01:21:28;;;;;;;;;;;;;;;11.00;72.30;102540.38;5071737;28;20290;-62
2023/05/25 01:24:04;;;;;;;;;;;;;;;10.98;72.36;102543.13;5070121;28;20516;-62
2023/05/25 01:26:33;;;;;;;;;;;;;;;10.95;72.75;102550.53;5072488;28;19962;-61
2023/05/25 01:28:58;;;;;;;;;;;;;;;10.91;72.65;102551.75;5068078;28;19916;-61
2023/05/25 01:31:23;;;;;;;;;;;;;;;10.88;72.74;102563.50;5068398;28;19913;-61
2023/05/25 01:33:50;;;;;;;;;;;;;;;10.84;72.75;102557.59;5074839;28;19951;-61
2023/05/25 01:36:15;;;;;;;;;;;;;;;10.81;72.73;102557.88;5073369;28;20006;-61
2023/05/25 01:38:40;;;;;;;;;;;;;;;10.77;72.78;102556.44;5073695;28;20050;-61
2023/05/25 01:41:05;;;;;;;;;;;;;;;10.73;73.03;102557.69;5068260;28;19924;-62
2023/05/25 01:43:30;;;;;;;;;;;;;;;10.70;73.24;102559.75;5080847;28;19931;-61
2023/05/25 01:46:00;;;;;;;;;;;;;;;10.65;73.37;102549.50;5067610;28;19951;-61
2023/05/25 01:48:39;;;;;;;;;;;;;;;10.63;73.56;102561.22;5080137;28;20321;-61
2023/05/25 01:51:08;;;;;;;;;;;;;;;10.61;73.37;102566.66;5068374;28;19924;-61
2023/05/25 01:53:41;;;;;;;;;;;;;;;10.58;73.68;102558.97;5068847;28;19959;-61
2023/05/25 01:56:07;;;;;;;;;;;;;;;10.57;73.33;102565.25;5068231;28;19970;-62
2023/05/25 01:58:43;;;;;;;;;;;;;;;10.54;73.58;102561.03;5072143;28;20019;-60
2023/05/25 02:01:08;;;;;;;;;;;;;;;10.52;73.56;102564.78;5078496;28;19923;-61
2023/05/25 02:03:34;;;;;;;;;;;;;;;10.49;73.65;102565.06;5069780;28;19916;-62
2023/05/25 02:06:00;;;;;;;;;;;;;;;10.48;73.90;102560.72;5070573;28;19912;-62
2023/05/25 02:08:25;;;;;;;;;;;;;;;10.47;73.77;102559.88;5077261;28;20329;-62
2023/05/25 02:10:50;;;;;;;;;;;;;;;10.45;74.26;102556.50;5079491;28;20010;-61
2023/05/25 02:13:15;;;;;;;;;;;;;;;10.41;74.34;102565.69;5073262;28;20285;-62
2023/05/25 02:15:40;;;;;;;;;;;;;;;10.37;74.13;102558.09;5084078;28;19927;-61
2023/05/25 02:18:07;;;;;;;;;;;;;;;10.34;74.16;102561.00;5071319;28;19916;-62
2023/05/25 02:20:32;;;;;;;;;;;;;;;10.32;74.30;102557.63;5067606;28;20558;-62
2023/05/25 02:22:57;;;;;;;;;;;;;;;10.28;74.52;102564.16;5068785;28;19961;-60
2023/05/25 02:25:23;;;;;;;;;;;;;;;10.23;74.50;102564.53;5076925;28;19930;-60
2023/05/25 02:27:48;;;;;;;;;;;;;;;10.18;74.56;102556.09;5079310;28;20014;-61
2023/05/25 02:30:14;;;;;;;;;;;;;;;10.14;74.77;102560.81;5074023;28;20584;-61
2023/05/25 02:32:40;;;;;;;;;;;;;;;10.12;74.56;102557.44;5071699;28;19916;-61
2023/05/25 02:35:05;;;;;;;;;;;;;;;10.12;74.64;102556.56;5080136;28;19920;-61
2023/05/25 02:37:30;;;;;;;;;;;;;;;10.09;74.92;102555.00;5067102;28;20275;-61
2023/05/25 02:39:55;;;;;;;;;;;;;;;10.07;75.38;102562.25;5072016;28;19912;-61
2023/05/25 02:42:21;;;;;;;;;;;;;;;10.06;75.13;102562.38;5069680;28;19913;-61
2023/05/25 02:44:47;;;;;;;;;;;;;;;10.05;75.17;102561.53;5068604;28;19970;-61
2023/05/25 02:47:13;;;;;;;;;;;;;;;10.04;75.18;102556.34;5067865;28;19920;-61
2023/05/25 02:49:38;;;;;;;;;;;;;;;9.88;75.24;102538.19;5070578;28;19923;-61
2023/05/25 02:52:04;;;;;;;;;;;;;;;9.99;74.95;102559.38;5074177;28;19995;-61
2023/05/25 02:54:30;;;;;;;;;;;;;;;9.97;75.45;102558.69;5076086;28;19916;-61
2023/05/25 02:56:55;;;;;;;;;;;;;;;9.94;75.85;102556.28;5077759;28;20399;-61
2023/05/25 02:59:20;;;;;;;;;;;;;;;9.92;75.92;102553.75;5070484;28;20006;-61
2023/05/25 03:01:45;;;;;;;;;;;;;;;9.91;75.93;102567.13;5084739;28;19951;-61
2023/05/25 03:04:11;;;;;;;;;;;;;;;9.88;76.08;102572.69;5074313;28;20381;-61
2023/05/25 03:06:36;;;;;;;;;;;;;;;9.85;75.92;102563.19;5085332;28;19923;-61
2023/05/25 03:09:03;;;;;;;;;;;;;;;9.84;75.63;102569.44;5076320;28;20331;-61
2023/05/25 03:11:29;;;;;;;;;;;;;;;9.83;75.64;102572.19;5080070;28;19923;-61
2023/05/25 03:13:54;;;;;;;;;;;;;;;9.83;75.48;102572.19;5077619;28;19917;-61
2023/05/25 03:16:21;;;;;;;;;;;;;;;9.82;75.60;102575.81;5081565;28;19923;-61
2023/05/25 03:18:47;;;;;;;;;;;;;;;9.80;75.63;102580.41;5071651;28;19924;-62
2023/05/25 03:21:12;;;;;;;;;;;;;;;9.79;76.07;102589.34;5071538;28;19913;-61
2023/05/25 03:23:37;;;;;;;;;;;;;;;9.77;75.93;102591.25;5077585;28;20432;-61
2023/05/25 03:26:02;;;;;;;;;;;;;;;9.77;76.10;102585.97;5071289;28;19946;-61
2023/05/25 03:28:27;;;;;;;;;;;;;;;9.76;76.35;102593.06;5068986;28;19928;-61
2023/05/25 03:30:53;;;;;;;;;;;;;;;9.76;76.23;102603.69;5071409;28;19928;-61
2023/05/25 03:33:18;;;;;;;;;;;;;;;9.75;76.09;102602.00;5073519;28;19946;-61
2023/05/25 03:35:43;;;;;;;;;;;;;;;9.74;76.23;102602.97;5073531;28;19916;-61
2023/05/25 03:38:08;;;;;;;;;;;;;;;9.74;76.08;102610.94;5070811;28;19935;-61
2023/05/25 03:40:33;;;;;;;;;;;;;;;9.73;76.17;102603.94;5080802;28;20358;-61
2023/05/25 03:42:58;;;;;;;;;;;;;;;9.71;76.29;102608.53;5075185;28;20565;-61
2023/05/25 03:45:24;;;;;;;;;;;;;;;9.68;76.38;102605.28;5074391;28;19958;-60
2023/05/25 03:47:49;;;;;;;;;;;;;;;9.65;76.26;102610.81;5079420;28;20285;-61
2023/05/25 03:50:14;;;;;;;;;;;;;;;9.62;76.43;102603.94;5080573;28;19924;-61
2023/05/25 03:52:39;;;;;;;;;;;;;;;9.60;76.59;102613.84;5080739;28;19947;-61
2023/05/25 03:55:05;;;;;;;;;;;;;;;9.61;77.03;102613.72;5071124;28;19973;-61
2023/05/25 03:57:30;;;;;;;;;;;;;;;9.61;77.38;102610.22;5085388;28;19916;-60
2023/05/25 03:59:55;;;;;;;;;;;;;;;9.58;77.34;102613.13;5078144;28;19919;-61
2023/05/25 04:02:20;;;;;;;;;;;;;;;9.58;77.50;102616.63;5082816;28;20367;-61
2023/05/25 04:04:50;;;;;;;;;;;;;;;9.55;77.46;102613.38;5072333;28;19917;-61
2023/05/25 04:07:15;;;;;;;;;;;;;;;9.54;77.14;102606.34;5079655;28;19964;-61
2023/05/25 04:09:40;;;;;;;;;;;;;;;9.55;77.31;102606.25;5084573;28;20369;-62
2023/05/25 04:12:06;;;;;;;;;;;;;;;9.56;76.95;102607.94;5075466;28;20360;-61
2023/05/25 04:14:31;;;;;;;;;;;;;;;9.56;77.75;102610.59;5075328;28;19924;-61
2023/05/25 04:16:56;;;;;;;;;;;;;;;9.49;77.99;102598.75;5080653;28;19924;-61
2023/05/25 04:19:21;;;;;;;;;;;;;;;9.56;78.04;102615.91;5079969;28;19916;-61
2023/05/25 04:21:46;;;;;;;;;;;;;;;9.57;78.39;102616.75;5081113;28;19920;-62
2023/05/25 04:24:12;;;;;;;;;;;;;;;9.57;78.49;102609.63;5072331;28;19965;-61
2023/05/25 04:26:38;;;;;;;;;;;;;;;9.59;78.19;102617.47;5073449;28;19919;-61
2023/05/25 04:29:03;;;;;;;;;;;;;;;9.61;78.66;102624.34;5069812;28;19923;-61
2023/05/25 04:31:28;;;;;;;;;;;;;;;9.64;78.46;102623.25;5075059;28;19915;-60
2023/05/25 04:33:54;;;;;;;;;;;;;;;9.67;78.35;102632.75;5070539;28;20424;-61
2023/05/25 04:36:21;;;;;;;;;;;;;;;9.69;78.60;102636.97;5072504;28;19912;-61
2023/05/25 04:38:46;;;;;;;;;;;;;;;9.71;78.72;102626.25;5068896;28;19912;-61
2023/05/25 04:41:12;;;;;;;;;;;;;;;9.73;78.65;102637.59;5072118;28;19912;-61
2023/05/25 04:43:38;;;;;;;;;;;;;;;9.74;78.81;102626.84;5071571;28;19913;-62
2023/05/25 04:46:03;;;;;;;;;;;;;;;9.77;78.69;102629.25;5069076;28;19920;-60
2023/05/25 04:48:31;;;;;;;;;;;;;;;9.80;79.09;102629.00;5070382;28;19916;-61
2023/05/25 04:50:56;;;;;;;;;;;;;;;9.84;79.27;102634.94;5075760;28;19919;-61
2023/05/25 04:53:21;;;;;;;;;;;;;;;9.88;79.15;102634.56;5072346;28;19916;-61
2023/05/25 04:55:48;;;;;;;;;;;;;;;9.94;79.77;102636.72;5075762;28;20424;-61
2023/05/25 04:58:13;;;;;;;;;;;;;;;10.00;79.87;102634.56;5067351;28;19920;-60
2023/05/25 05:00:39;;;;;;;;;;;;;;;10.05;80.03;102642.97;5070194;28;19924;-60
2023/05/25 05:03:04;;;;;;;;;;;;;;;10.12;80.19;102645.03;5072395;28;19920;-61
2023/05/25 05:05:29;;;;;;;;;;;;;;;10.18;80.48;102647.19;5076267;28;20393;-61
2023/05/25 05:07:55;;;;;;;;;;;;;;;10.24;80.69;102651.19;5074956;28;19946;-62
2023/05/25 05:10:20;;;;;;;;;;;;;;;10.31;81.01;102654.19;5073941;28;19978;-61
2023/05/25 05:12:45;;;;;;;;;;;;;;;10.37;81.18;102651.88;5078890;28;19935;-61
2023/05/25 05:15:10;;;;;;;;;;;;;;;10.46;81.52;102652.97;5081307;28;19920;-61
2023/05/25 05:17:35;;;;;;;;;;;;;;;10.54;81.35;102658.47;5074110;28;19916;-61
2023/05/25 05:20:01;;;;;;;;;;;;;;;10.59;81.77;102652.78;5068660;28;20304;-60
2023/05/25 05:22:26;;;;;;;;;;;;;;;10.64;81.71;102658.56;5069738;28;19920;-60
2023/05/25 05:24:51;;;;;;;;;;;;;;;10.70;82.34;102653.59;5069866;28;20302;-61
2023/05/25 05:27:16;;;;;;;;;;;;;;;10.76;82.28;102657.56;5079384;28;19924;-61
2023/05/25 05:29:41;;;;;;;;;;;;;;;10.82;82.57;102673.84;5070935;28;20007;-61
2023/05/25 05:32:07;;;;;;;;;;;;;;;10.89;82.53;102662.69;5079130;28;19959;-61
2023/05/25 05:34:32;;;;;;;;;;;;;;;10.95;82.33;102668.34;5072158;28;19925;-60
2023/05/25 05:36:58;;;;;;;;;;;;;;;11.01;82.73;102667.84;5069915;28;19920;-61
2023/05/25 05:39:24;;;;;;;;;;;;;;;11.08;82.58;102671.66;5070253;28;20378;-61
2023/05/25 05:41:49;;;;;;;;;;;;;;;11.15;82.79;102671.97;5074083;28;19924;-61
2023/05/25 05:44:15;;;;;;;;;;;;;;;11.22;82.53;102670.47;5069221;28;19928;-61
2023/05/25 05:46:40;;;;;;;;;;;;;;;11.27;82.27;102684.22;5072875;28;19913;-61
2023/05/25 05:49:05;;;;;;;;;;;;;;;11.33;82.25;102685.56;5068284;28;19962;-61
2023/05/25 05:51:31;;;;;;;;;;;;;;;11.38;82.38;102683.34;5073156;28;19919;-61
2023/05/25 05:53:56;;;;;;;;;;;;;;;11.42;82.14;102676.78;5077737;28;20370;-61
2023/05/25 05:56:21;;;;;;;;;;;;;;;11.48;82.29;102692.22;5080215;28;19970;-61
2023/05/25 05:58:48;;;;;;;;;;;;;;;11.55;82.37;102692.53;5072011;28;19917;-61
2023/05/25 06:01:13;;;;;;;;;;;;;;;11.62;82.09;102696.38;5076620;28;19912;-61
2023/05/25 06:03:39;;;;;;;;;;;;;;;11.65;81.85;102704.09;5072136;28;19924;-61
2023/05/25 06:06:04;;;;;;;;;;;;;;;11.69;81.58;102711.66;5076168;28;19917;-61
2023/05/25 06:08:29;;;;;;;;;;;;;;;11.72;81.51;102708.75;5079797;28;19977;-62
2023/05/25 06:10:54;;;;;;;;;;;;;;;11.76;81.24;102704.00;5076192;28;19947;-62
2023/05/25 06:13:20;;;;;;;;;;;;;;;11.80;81.19;102700.13;5068872;28;19917;-62
2023/05/25 06:15:45;;;;;;;;;;;;;;;11.85;81.28;102700.56;5072201;28;19967;-62
2023/05/25 06:18:10;;;;;;;;;;;;;;;11.89;81.08;102695.84;5070476;28;19920;-62
2023/05/25 06:20:35;;;;;;;;;;;;;;;11.92;81.01;102696.41;5078203;28;20328;-62
2023/05/25 06:23:01;;;;;;;;;;;;;;;11.96;81.10;102705.81;5068554;28;19951;-62
2023/05/25 06:25:26;;;;;;;;;;;;;;;12.02;80.57;102705.25;5075749;28;19920;-62
2023/05/25 06:27:51;;;;;;;;;;;;;;;12.03;81.02;102696.28;5076093;28;19920;-62
2023/05/25 06:30:16;;;;;;;;;;;;;;;12.14;80.73;102705.16;5076014;28;19923;-62
2023/05/25 06:32:42;;;;;;;;;;;;;;;12.19;80.16;102705.63;5091470;28;19912;-62
2023/05/25 06:35:08;;;;;;;;;;;;;;;12.24;80.14;102709.56;5085805;28;19912;-62
2023/05/25 06:37:36;;;;;;;;;;;;;;;12.29;80.13;102701.16;5082779;28;20411;-62
2023/05/25 06:40:01;;;;;;;;;;;;;;;12.33;79.61;102705.22;5076202;28;19955;-62
2023/05/25 06:42:27;;;;;;;;;;;;;;;12.38;79.78;102718.97;5072001;28;20050;-62
2023/05/25 06:44:52;;;;;;;;;;;;;;;12.43;79.65;102716.75;5084075;28;19927;-62
2023/05/25 06:47:17;;;;;;;;;;;;;;;12.49;79.32;102726.03;5084212;28;19977;-61
2023/05/25 06:49:42;;;;;;;;;;;;;;;12.55;79.45;102731.66;5088271;28;19916;-61
2023/05/25 06:52:07;;;;;;;;;;;;;;;12.61;79.20;102725.75;5078418;28;19912;-61
2023/05/25 06:54:33;;;;;;;;;;;;;;;12.65;78.97;102727.16;5083650;28;19991;-61
2023/05/25 06:56:58;;;;;;;;;;;;;;;12.68;78.06;102734.88;5080615;28;20595;-61
2023/05/25 06:59:23;;;;;;;;;;;;;;;12.71;77.97;102729.28;5080206;28;20004;-61
2023/05/25 07:01:48;;;;;;;;;;;;;;;12.77;77.49;102735.06;5076059;28;19913;-61
2023/05/25 07:04:13;;;;;;;;;;;;;;;12.81;77.04;102729.31;5087334;28;19995;-61
2023/05/25 07:06:39;;;;;;;;;;;;;;;12.87;77.08;102741.22;5085367;28;19920;-62
2023/05/25 07:09:04;;;;;;;;;;;;;;;12.93;76.48;102740.66;5076592;28;20527;-62
2023/05/25 07:11:29;;;;;;;;;;;;;;;12.96;76.38;102737.72;5073673;28;20425;-62
2023/05/25 07:13:54;;;;;;;;;;;;;;;13.01;75.87;102740.84;5077539;28;19912;-62
2023/05/25 07:16:19;;;;;;;;;;;;;;;13.09;75.92;102745.47;5086168;28;19916;-62
2023/05/25 07:18:45;;;;;;;;;;;;;;;13.15;75.61;102743.06;5075918;28;19923;-62
2023/05/25 07:21:10;;;;;;;;;;;;;;;13.23;76.06;102734.38;5078914;28;19916;-62
2023/05/25 07:23:35;;;;;;;;;;;;;;;13.31;75.76;102742.53;5075337;28;19931;-62
2023/05/25 07:26:01;;;;;;;;;;;;;;;13.40;75.70;102744.34;5090865;28;20019;-62
2023/05/25 07:28:26;;;;;;;;;;;;;;;13.50;75.57;102741.66;5071623;28;19920;-62
2023/05/25 07:30:51;;;;;;;;;;;;;;;13.54;74.50;102743.06;5076657;28;19912;-62
2023/05/25 07:33:16;;;;;;;;;;;;;;;13.54;73.86;102743.06;5081103;28;20000;-62
2023/05/25 07:35:41;;;;;;;;;;;;;;;13.56;74.10;102751.75;5078308;28;20365;-62
2023/05/25 07:38:07;;;;;;;;;;;;;;;13.60;73.87;102754.03;5077651;28;19913;-62
2023/05/25 07:40:32;;;;;;;;;;;;;;;13.66;73.81;102751.75;5070800;28;20548;-62
2023/05/25 07:42:57;;;;;;;;;;;;;;;13.68;73.43;102739.94;5081073;28;19912;-62
2023/05/25 07:45:22;;;;;;;;;;;;;;;13.73;73.68;102751.03;5082779;28;19924;-62
2023/05/25 07:47:48;;;;;;;;;;;;;;;13.82;73.77;102751.97;5080531;28;19912;-61
2023/05/25 07:50:13;;;;;;;;;;;;;;;13.89;73.39;102759.28;5078218;28;19916;-60
2023/05/25 07:52:39;;;;;;;;;;;;;;;13.98;73.36;102749.56;5071091;28;19940;-60
2023/05/25 07:55:07;;;;;;;;;;;;;;;14.05;72.91;102755.16;5083234;28;20465;-61
2023/05/25 07:57:32;;;;;;;;;;;;;;;14.07;72.73;102758.50;5070837;28;19974;-61
2023/05/25 07:59:58;;;;;;;;;;;;;;;14.09;72.40;102760.03;5070388;28;19925;-60
2023/05/25 08:02:23;;;;;;;;;;;;;;;14.12;72.05;102773.09;5080213;28;19920;-60
2023/05/25 08:04:48;;;;;;;;;;;;;;;14.16;71.52;102779.84;5086926;28;19976;-61
2023/05/25 08:07:13;;;;;;;;;;;;;;;14.17;71.27;102768.19;5090843;28;20002;-61
2023/05/25 08:09:38;;;;;;;;;;;;;;;14.21;71.47;102769.56;5068516;28;19920;-60
2023/05/25 08:12:04;;;;;;;;;;;;;;;14.34;71.51;102773.72;5094349;28;19920;-61
2023/05/25 08:14:29;;;;;;;;;;;;;;;14.43;71.01;102773.72;5075039;28;19916;-61
2023/05/25 08:16:54;;;;;;;;;;;;;;;14.48;70.42;102768.78;5079412;28;19913;-61
2023/05/25 08:19:19;;;;;;;;;;;;;;;14.53;69.94;102769.16;5076576;28;19924;-61
2023/05/25 08:21:45;;;;;;;;;;;;;;;14.55;69.53;102777.88;5071201;28;19928;-61
2023/05/25 08:24:10;;;;;;;;;;;;;;;14.65;69.25;102769.78;5073343;28;20375;-61
2023/05/25 08:26:35;;;;;;;;;;;;;;;14.76;69.41;102776.78;5086326;28;19916;-61
2023/05/25 08:29:03;;;;;;;;;;;;;;;14.84;68.59;102780.38;5079597;28;19923;-61
2023/05/25 08:31:32;;;;;;;;;;;;;;;14.87;67.89;102781.91;5069970;28;19919;-61
2023/05/25 08:33:58;;;;;;;;;;;;;;;14.86;67.69;102785.56;5086179;28;20413;-63
2023/05/25 08:36:24;;;;;;;;;;;;;;;14.97;67.84;102773.81;5084498;28;20022;-61
2023/05/25 08:38:50;;;;;;;;;;;;;;;15.14;67.49;102781.00;5070739;28;20011;-61
2023/05/25 08:41:15;;;;;;;;;;;;;;;15.28;66.80;102784.97;5075803;28;19968;-60
2023/05/25 08:43:41;;;;;;;;;;;;;;;15.30;66.37;102788.31;5069798;28;19917;-61
2023/05/25 08:46:07;;;;;;;;;;;;;;;15.25;66.42;102780.75;5076839;28;19935;-61
2023/05/25 08:48:34;;;;;;;;;;;;;;;15.23;65.79;102787.25;5076614;28;20497;-61
2023/05/25 08:51:00;;;;;;;;;;;;;;;15.21;65.19;102789.25;5077150;28;19916;-61
2023/05/25 08:53:25;;;;;;;;;;;;;;;15.27;65.79;102784.13;5074435;28;19919;-61
2023/05/25 08:55:52;;;;;;;;;;;;;;;15.33;65.30;102782.69;5071243;28;19916;-61
2023/05/25 08:58:19;;;;;;;;;;;;;;;15.37;65.11;102784.91;5075674;28;19916;-61
2023/05/25 09:00:50;;;;;;;;;;;;;;;15.36;64.57;102783.22;5069860;28;19919;-61
2023/05/25 09:03:16;;;;;;;;;;;;;;;15.33;64.49;102788.03;5068263;28;19912;-61
2023/05/25 09:05:41;;;;;;;;;;;;;;;15.29;64.68;102792.00;5071533;28;19920;-60
2023/05/25 09:08:07;;;;;;;;;;;;;;;15.22;64.86;102794.47;5074191;28;19932;-61
2023/05/25 09:10:37;;;;;;;;;;;;;;;15.18;65.51;102796.59;5079536;28;19932;-61
2023/05/25 09:13:02;;;;;;;;;;;;;;;15.16;65.45;102797.75;5083054;28;19912;-61
2023/05/25 09:15:27;;;;;;;;;;;;;;;15.13;65.32;102798.91;5077729;28;19970;-61
2023/05/25 09:17:53;;;;;;;;;;;;;;;15.09;65.82;102802.88;5077964;28;19917;-61
2023/05/25 09:20:18;;;;;;;;;;;;;;;15.06;65.61;102811.22;5080165;28;19920;-62
2023/05/25 09:22:44;;;;;;;;;;;;;;;15.05;65.61;102809.53;5074754;28;20396;-61
2023/05/25 09:25:10;;;;;;;;;;;;;;;15.05;65.00;102811.38;5076209;28;20552;-60
2023/05/25 09:27:38;;;;;;;;;;;;;;;15.05;64.97;102814.03;5083588;28;20385;-61
2023/05/25 09:30:03;;;;;;;;;;;;;;;15.03;64.83;102808.81;5087562;28;19923;-61
2023/05/25 09:32:29;;;;;;;;;;;;;;;15.05;64.25;102812.22;5074426;28;19913;-62
2023/05/25 09:34:56;;;;;;;;;;;;;;;15.07;63.53;102801.34;5074141;28;19919;-62
2023/05/25 09:37:21;;;;;;;;;;;;;;;15.08;63.24;102805.72;5077978;28;20001;-61
2023/05/25 09:39:47;;;;;;;;;;;;;;;15.14;62.26;102800.56;5074283;28;20009;-62
2023/05/25 09:42:12;;;;;;;;;;;;;;;15.21;62.60;102799.97;5072541;28;19990;-61
2023/05/25 09:44:38;;;;;;;;;;;;;;;15.29;62.26;102810.72;5068989;28;20285;-62
2023/05/25 09:47:03;;;;;;;;;;;;;;;15.37;61.88;102802.81;5074713;28;20285;-62
2023/05/25 09:49:28;;;;;;;;;;;;;;;15.44;61.92;102801.19;5075568;28;19912;-61
2023/05/25 09:51:54;;;;;;;;;;;;;;;15.55;61.78;102810.81;5080274;28;19920;-62
2023/05/25 09:54:21;;;;;;;;;;;;;;;15.66;61.89;102808.75;5076634;28;19912;-61
2023/05/25 09:56:47;;;;;;;;;;;;;;;15.76;61.08;102805.97;5073327;28;19962;-62
2023/05/25 09:59:12;;;;;;;;;;;;;;;15.88;60.91;102809.22;5071870;28;19955;-62
2023/05/25 10:01:37;;;;;;;;;;;;;;;15.99;59.72;102815.19;5071168;28;19916;-62
2023/05/25 10:04:03;;;;;;;;;;;;;;;16.11;59.35;102813.06;5073065;28;20015;-60
2023/05/25 10:06:30;;;;;;;;;;;;;;;16.20;59.36;102809.47;5075042;28;19923;-60
2023/05/25 10:08:56;;;;;;;;;;;;;;;16.28;59.00;102806.81;5071231;28;19935;-61
2023/05/25 10:11:22;;;;;;;;;;;;;;;16.36;58.74;102814.03;5082011;28;19923;-61
2023/05/25 10:13:49;;;;;;;;;;;;;;;16.42;59.18;102810.72;5078013;28;20339;-61
2023/05/25 10:16:17;;;;;;;;;;;;;;;16.46;58.40;102811.22;5077767;28;19916;-61
2023/05/25 10:18:47;;;;;;;;;;;;;;;16.48;58.24;102817.28;5085201;28;20408;-61
2023/05/25 10:21:14;;;;;;;;;;;;;;;16.48;57.91;102815.47;5074709;28;20385;-61
2023/05/25 10:23:43;;;;;;;;;;;;;;;16.47;57.50;102802.19;5077239;28;19916;-61
2023/05/25 10:26:10;;;;;;;;;;;;;;;16.47;57.26;102811.06;5072591;28;20515;-61
2023/05/25 10:28:36;;;;;;;;;;;;;;;16.45;57.34;102809.56;5076064;28;19992;-61
2023/05/25 10:31:02;;;;;;;;;;;;;;;16.48;57.54;102810.09;5076452;28;19917;-61
2023/05/25 10:33:27;;;;;;;;;;;;;;;16.51;57.47;102817.81;5072400;28;20283;-60
2023/05/25 10:35:53;;;;;;;;;;;;;;;16.51;57.70;102816.97;5071861;28;19917;-61
2023/05/25 10:38:19;;;;;;;;;;;;;;;16.53;57.76;102814.97;5070019;28;20118;-61
2023/05/25 10:40:50;;;;;;;;;;;;;;;16.54;57.65;102806.75;5072129;28;19958;-61
2023/05/25 10:43:16;;;;;;;;;;;;;;;16.59;58.09;102803.59;5078678;28;20406;-61
2023/05/25 10:45:41;;;;;;;;;;;;;;;16.65;57.72;102805.63;5077468;28;20355;-60
2023/05/25 10:48:06;;;;;;;;;;;;;;;16.73;58.05;102813.72;5076535;28;19912;-61
2023/05/25 10:50:35;;;;;;;;;;;;;;;16.79;58.17;102813.09;5082439;28;20380;-61
2023/05/25 10:53:00;;;;;;;;;;;;;;;16.81;57.77;102807.56;5071634;28;19919;-61
2023/05/25 10:55:30;;;;;;;;;;;;;;;16.79;57.27;102813.09;5074172;28;19916;-60
2023/05/25 10:58:09;;;;;;;;;;;;;;;16.83;57.75;102806.38;5073842;28;19955;-61
2023/05/25 11:00:34;;;;;;;;;;;;;;;17.12;58.03;102805.94;5069427;28;19920;-61
2023/05/25 11:03:00;;;;;;;;;;;;;;;17.34;58.37;102804.44;5076469;28;19916;-61
2023/05/25 11:05:25;;;;;;;;;;;;;;;17.46;57.34;102804.94;5075467;28;19920;-61
2023/05/25 11:08:03;;;;;;;;;;;;;;;17.50;56.93;102807.13;5076190;28;19995;-61
2023/05/25 11:10:41;;;;;;;;;;;;;;;17.51;56.09;102805.28;5082194;28;19916;-61
2023/05/25 11:13:19;;;;;;;;;;;;;;;17.52;56.87;102809.66;5075415;28;19924;-61
2023/05/25 11:15:46;;;;;;;;;;;;;;;17.55;56.39;102807.47;5082990;28;19930;-61
2023/05/25 11:18:13;;;;;;;;;;;;;;;17.63;56.51;102798.53;5075258;28;20016;-61
2023/05/25 11:20:38;;;;;;;;;;;;;;;17.79;57.43;102808.50;5081638;28;19918;-61
2023/05/25 11:23:21;;;;;;;;;;;;;;;18.04;57.56;102798.53;5076683;28;19917;-61
2023/05/25 11:25:46;;;;;;;;;;;;;;;18.37;57.15;102804.66;5082767;28;20298;-61
2023/05/25 11:28:11;;;;;;;;;;;;;;;18.51;55.68;102795.84;5079566;28;19927;-62
2023/05/25 11:30:38;;;;;;;;;;;;;;;18.45;54.64;102788.47;5075904;28;19916;-61
2023/05/25 11:33:03;;;;;;;;;;;;;;;18.37;54.63;102785.81;5077312;28;19924;-61
2023/05/25 11:35:32;;;;;;;;;;;;;;;18.35;55.00;102785.16;5074469;28;19920;-61
2023/05/25 11:37:59;;;;;;;;;;;;;;;18.43;54.96;102782.41;5077083;28;19951;-61
2023/05/25 11:40:24;;;;;;;;;;;;;;;18.47;54.68;102784.56;5076491;28;20391;-61
2023/05/25 11:42:51;;;;;;;;;;;;;;;18.41;54.30;102773.69;5076012;28;19917;-61
2023/05/25 11:45:16;;;;;;;;;;;;;;;18.39;54.24;102778.41;5082046;28;19928;-61
2023/05/25 11:47:41;;;;;;;;;;;;;;;18.28;54.21;102776.94;5084483;28;20020;-61
2023/05/25 11:50:13;;;;;;;;;;;;;;;18.21;54.38;102787.56;5070860;28;19919;-61
2023/05/25 11:52:38;;;;;;;;;;;;;;;18.15;54.45;102768.56;5073175;28;20457;-61
2023/05/25 11:55:09;;;;;;;;;;;;;;;18.05;54.54;102776.84;5075530;28;20003;-62
2023/05/25 11:57:34;;;;;;;;;;;;;;;17.99;54.34;102772.16;5077592;28;19926;-61
2023/05/25 12:00:02;;;;;;;;;;;;;;;17.95;54.50;102770.84;5075417;28;19916;-62
2023/05/25 12:02:36;;;;;;;;;;;;;;;17.94;54.51;102769.16;5076291;28;19912;-62
2023/05/25 12:05:01;;;;;;;;;;;;;;;17.95;54.92;102766.31;5076217;28;19921;-62
2023/05/25 12:07:27;;;;;;;;;;;;;;;18.01;54.48;102761.25;5078664;28;19974;-61
2023/05/25 12:10:08;;;;;;;;;;;;;;;18.09;54.32;102764.72;5082653;28;19916;-61
2023/05/25 12:12:49;;;;;;;;;;;;;;;18.20;54.14;102764.34;5080264;28;20309;-61
2023/05/25 12:15:22;;;;;;;;;;;;;;;18.31;53.68;102759.63;5075786;28;20310;-61
2023/05/25 12:17:48;;;;;;;;;;;;;;;18.37;53.26;102753.53;5077318;28;19920;-61
2023/05/25 12:20:14;;;;;;;;;;;;;;;18.42;53.07;102757.38;5082311;28;19922;-60
2023/05/25 12:22:40;;;;;;;;;;;;;;;18.50;53.01;102751.09;5077219;28;19920;-61
2023/05/25 12:25:06;;;;;;;;;;;;;;;18.57;53.02;102750.25;5075671;28;19921;-62
2023/05/25 12:27:31;;;;;;;;;;;;;;;18.63;53.26;102740.66;5074626;28;19927;-62
2023/05/25 12:29:57;;;;;;;;;;;;;;;18.68;52.79;102753.56;5070190;28;19916;-62
2023/05/25 12:32:23;;;;;;;;;;;;;;;18.72;52.48;102749.50;5073315;28;19920;-62